sensor_id;sensor_type;location;lat;lon;timestamp;temperature;humidity
1455;DHT22;721;48.168;12.818;2023-11-21T00:00:45;7.20;9.70
1455;DHT22;721;48.168;12.818;2023-11-21T00:03:12;7.20;10.10
1455;DHT22;721;48.168;12.818;2023-11-21T00:05:40;7.10;11.30
1455;DHT22;721;48.168;12.818;2023-11-21T00:08:09;7.10;11.60
1455;DHT22;721;48.168;12.818;2023-11-21T00:10:36;7.00;12.50
1455;DHT22;721;48.168;12.818;2023-11-21T00:13:04;7.00;12.40
1455;DHT22;721;48.168;12.818;2023-11-21T00:15:31;7.00;13.10
1455;DHT22;721;48.168;12.818;2023-11-21T00:17:57;7.00;13.40
1455;DHT22;721;48.168;12.818;2023-11-21T00:20:24;7.00;12.60
1455;DHT22;721;48.168;12.818;2023-11-21T00:22:51;7.00;12.60
1455;DHT22;721;48.168;12.818;2023-11-21T00:25:19;7.10;13.40
1455;DHT22;721;48.168;12.818;2023-11-21T00:27:46;7.00;14.00
1455;DHT22;721;48.168;12.818;2023-11-21T00:30:13;7.00;14.60
1455;DHT22;721;48.168;12.818;2023-11-21T00:32:40;7.00;15.10
1455;DHT22;721;48.168;12.818;2023-11-21T00:35:08;7.10;14.80
1455;DHT22;721;48.168;12.818;2023-11-21T00:37:35;7.10;14.40
1455;DHT22;721;48.168;12.818;2023-11-21T00:40:05;7.20;13.70
1455;DHT22;721;48.168;12.818;2023-11-21T00:42:34;7.10;15.20
1455;DHT22;721;48.168;12.818;2023-11-21T00:45:00;7.20;16.30
1455;DHT22;721;48.168;12.818;2023-11-21T00:47:29;7.20;15.30
1455;DHT22;721;48.168;12.818;2023-11-21T00:49:55;7.20;15.80
1455;DHT22;721;48.168;12.818;2023-11-21T00:52:22;7.10;17.00
1455;DHT22;721;48.168;12.818;2023-11-21T00:54:49;6.90;18.50
1455;DHT22;721;48.168;12.818;2023-11-21T00:57:16;7.10;18.90
1455;DHT22;721;48.168;12.818;2023-11-21T00:59:44;7.10;18.80
1455;DHT22;721;48.168;12.818;2023-11-21T01:02:11;7.20;17.70
1455;DHT22;721;48.168;12.818;2023-11-21T01:04:38;7.20;17.80
1455;DHT22;721;48.168;12.818;2023-11-21T01:07:04;7.30;18.20
1455;DHT22;721;48.168;12.818;2023-11-21T01:09:32;7.30;17.30
1455;DHT22;721;48.168;12.818;2023-11-21T01:11:59;7.30;17.10
1455;DHT22;721;48.168;12.818;2023-11-21T01:14:26;7.40;16.60
1455;DHT22;721;48.168;12.818;2023-11-21T01:16:55;7.40;16.20
1455;DHT22;721;48.168;12.818;2023-11-21T01:19:21;7.50;16.10
1455;DHT22;721;48.168;12.818;2023-11-21T01:21:49;7.50;16.30
1455;DHT22;721;48.168;12.818;2023-11-21T01:24:15;7.60;16.10
1455;DHT22;721;48.168;12.818;2023-11-21T01:26:42;7.60;16.60
1455;DHT22;721;48.168;12.818;2023-11-21T01:29:12;7.60;16.20
1455;DHT22;721;48.168;12.818;2023-11-21T01:31:39;7.70;16.20
1455;DHT22;721;48.168;12.818;2023-11-21T01:34:07;7.70;15.40
1455;DHT22;721;48.168;12.818;2023-11-21T01:36:34;7.80;15.50
1455;DHT22;721;48.168;12.818;2023-11-21T01:39:01;7.80;15.30
1455;DHT22;721;48.168;12.818;2023-11-21T01:41:28;7.90;16.30
1455;DHT22;721;48.168;12.818;2023-11-21T01:43:56;8.00;16.40
1455;DHT22;721;48.168;12.818;2023-11-21T01:46:23;7.90;17.30
1455;DHT22;721;48.168;12.818;2023-11-21T01:48:50;7.90;18.10
1455;DHT22;721;48.168;12.818;2023-11-21T01:51:20;7.90;17.50
1455;DHT22;721;48.168;12.818;2023-11-21T01:53:46;7.90;18.00
1455;DHT22;721;48.168;12.818;2023-11-21T01:56:14;7.90;19.30
1455;DHT22;721;48.168;12.818;2023-11-21T01:58:42;7.90;20.30
1455;DHT22;721;48.168;12.818;2023-11-21T02:01:09;7.80;19.90
1455;DHT22;721;48.168;12.818;2023-11-21T02:03:35;7.80;19.80
1455;DHT22;721;48.168;12.818;2023-11-21T02:06:02;7.80;20.00
1455;DHT22;721;48.168;12.818;2023-11-21T02:08:31;7.70;20.10
1455;DHT22;721;48.168;12.818;2023-11-21T02:10:58;7.70;20.40
1455;DHT22;721;48.168;12.818;2023-11-21T02:13:25;7.60;21.70
1455;DHT22;721;48.168;12.818;2023-11-21T02:15:52;7.50;21.80
1455;DHT22;721;48.168;12.818;2023-11-21T02:18:19;7.50;23.50
1455;DHT22;721;48.168;12.818;2023-11-21T02:20:47;7.60;23.80
1455;DHT22;721;48.168;12.818;2023-11-21T02:23:15;7.60;22.70
1455;DHT22;721;48.168;12.818;2023-11-21T02:25:43;7.70;21.90
1455;DHT22;721;48.168;12.818;2023-11-21T02:28:10;7.70;21.90
1455;DHT22;721;48.168;12.818;2023-11-21T02:30:38;7.70;21.70
1455;DHT22;721;48.168;12.818;2023-11-21T02:33:05;7.60;21.70
1455;DHT22;721;48.168;12.818;2023-11-21T02:35:32;7.60;21.40
1455;DHT22;721;48.168;12.818;2023-11-21T02:38:00;7.60;23.10
1455;DHT22;721;48.168;12.818;2023-11-21T02:40:29;7.60;23.30
1455;DHT22;721;48.168;12.818;2023-11-21T02:42:56;7.60;22.80
1455;DHT22;721;48.168;12.818;2023-11-21T02:45:24;7.60;22.60
1455;DHT22;721;48.168;12.818;2023-11-21T02:47:51;7.50;23.00
1455;DHT22;721;48.168;12.818;2023-11-21T02:50:22;7.60;22.70
1455;DHT22;721;48.168;12.818;2023-11-21T02:52:49;7.70;21.50
1455;DHT22;721;48.168;12.818;2023-11-21T02:55:16;7.70;21.90
1455;DHT22;721;48.168;12.818;2023-11-21T02:57:45;7.70;21.90
1455;DHT22;721;48.168;12.818;2023-11-21T03:00:12;7.70;21.70
1455;DHT22;721;48.168;12.818;2023-11-21T03:02:40;7.70;22.50
1455;DHT22;721;48.168;12.818;2023-11-21T03:05:08;7.70;23.20
1455;DHT22;721;48.168;12.818;2023-11-21T03:07:36;7.70;22.00
1455;DHT22;721;48.168;12.818;2023-11-21T03:10:03;7.60;23.10
1455;DHT22;721;48.168;12.818;2023-11-21T03:12:30;7.60;23.50
1455;DHT22;721;48.168;12.818;2023-11-21T03:14:58;7.70;23.40
1455;DHT22;721;48.168;12.818;2023-11-21T03:17:25;7.70;23.20
1455;DHT22;721;48.168;12.818;2023-11-21T03:19:52;7.70;22.70
1455;DHT22;721;48.168;12.818;2023-11-21T03:22:20;7.70;22.10
1455;DHT22;721;48.168;12.818;2023-11-21T03:24:46;7.70;22.10
1455;DHT22;721;48.168;12.818;2023-11-21T03:27:13;7.70;21.50
1455;DHT22;721;48.168;12.818;2023-11-21T03:29:40;7.80;21.00
1455;DHT22;721;48.168;12.818;2023-11-21T03:32:08;7.80;20.70
1455;DHT22;721;48.168;12.818;2023-11-21T03:34:35;7.70;21.00
1455;DHT22;721;48.168;12.818;2023-11-21T03:37:02;7.70;21.90
1455;DHT22;721;48.168;12.818;2023-11-21T03:39:28;7.60;21.90
1455;DHT22;721;48.168;12.818;2023-11-21T03:41:55;7.60;22.10
1455;DHT22;721;48.168;12.818;2023-11-21T03:44:22;7.60;22.70
1455;DHT22;721;48.168;12.818;2023-11-21T03:46:49;7.60;23.00
1455;DHT22;721;48.168;12.818;2023-11-21T03:49:17;7.50;23.70
1455;DHT22;721;48.168;12.818;2023-11-21T03:51:44;7.50;23.70
1455;DHT22;721;48.168;12.818;2023-11-21T03:54:11;7.50;24.40
1455;DHT22;721;48.168;12.818;2023-11-21T03:56:37;7.40;24.70
1455;DHT22;721;48.168;12.818;2023-11-21T03:59:04;7.40;25.90
1455;DHT22;721;48.168;12.818;2023-11-21T04:01:31;7.50;25.70
1455;DHT22;721;48.168;12.818;2023-11-21T04:03:58;7.50;25.70
1455;DHT22;721;48.168;12.818;2023-11-21T04:06:26;7.40;26.40
1455;DHT22;721;48.168;12.818;2023-11-21T04:08:53;7.40;26.00
1455;DHT22;721;48.168;12.818;2023-11-21T04:11:21;7.40;25.80
1455;DHT22;721;48.168;12.818;2023-11-21T04:13:48;7.40;26.20
1455;DHT22;721;48.168;12.818;2023-11-21T04:16:14;7.40;25.80
1455;DHT22;721;48.168;12.818;2023-11-21T04:18:41;7.40;25.60
1455;DHT22;721;48.168;12.818;2023-11-21T04:21:08;7.30;27.50
1455;DHT22;721;48.168;12.818;2023-11-21T04:23:36;7.30;27.70
1455;DHT22;721;48.168;12.818;2023-11-21T04:26:03;7.30;27.70
1455;DHT22;721;48.168;12.818;2023-11-21T04:28:30;7.10;29.60
1455;DHT22;721;48.168;12.818;2023-11-21T04:30:57;7.00;32.90
1455;DHT22;721;48.168;12.818;2023-11-21T04:33:23;6.90;35.40
1455;DHT22;721;48.168;12.818;2023-11-21T04:35:51;7.00;37.80
1455;DHT22;721;48.168;12.818;2023-11-21T04:38:17;6.90;39.80
1455;DHT22;721;48.168;12.818;2023-11-21T04:40:46;7.30;39.00
1455;DHT22;721;48.168;12.818;2023-11-21T04:43:13;6.90;39.80
1455;DHT22;721;48.168;12.818;2023-11-21T04:45:39;6.90;40.70
1455;DHT22;721;48.168;12.818;2023-11-21T04:48:07;6.90;40.50
1455;DHT22;721;48.168;12.818;2023-11-21T04:50:34;6.70;39.70
1455;DHT22;721;48.168;12.818;2023-11-21T04:53:00;7.00;40.80
1455;DHT22;721;48.168;12.818;2023-11-21T04:55:28;7.10;41.20
1455;DHT22;721;48.168;12.818;2023-11-21T04:57:56;7.00;41.30
1455;DHT22;721;48.168;12.818;2023-11-21T05:00:23;7.10;41.30
1455;DHT22;721;48.168;12.818;2023-11-21T05:02:49;7.10;40.40
1455;DHT22;721;48.168;12.818;2023-11-21T05:05:17;7.20;40.50
1455;DHT22;721;48.168;12.818;2023-11-21T05:07:45;7.30;40.90
1455;DHT22;721;48.168;12.818;2023-11-21T05:10:12;7.30;40.60
1455;DHT22;721;48.168;12.818;2023-11-21T05:12:40;7.30;39.10
1455;DHT22;721;48.168;12.818;2023-11-21T05:15:10;7.50;39.10
1455;DHT22;721;48.168;12.818;2023-11-21T05:17:41;7.50;38.20
1455;DHT22;721;48.168;12.818;2023-11-21T05:20:09;7.60;37.70
1455;DHT22;721;48.168;12.818;2023-11-21T05:22:37;7.70;36.30
1455;DHT22;721;48.168;12.818;2023-11-21T05:25:04;7.80;34.60
1455;DHT22;721;48.168;12.818;2023-11-21T05:27:33;7.80;33.90
1455;DHT22;721;48.168;12.818;2023-11-21T05:30:01;8.00;33.00
1455;DHT22;721;48.168;12.818;2023-11-21T05:32:29;8.10;33.00
1455;DHT22;721;48.168;12.818;2023-11-21T05:34:56;8.10;31.60
1455;DHT22;721;48.168;12.818;2023-11-21T05:37:23;8.10;30.00
1455;DHT22;721;48.168;12.818;2023-11-21T05:39:51;8.10;29.90
1455;DHT22;721;48.168;12.818;2023-11-21T05:42:18;8.10;29.00
1455;DHT22;721;48.168;12.818;2023-11-21T05:44:44;8.10;29.30
1455;DHT22;721;48.168;12.818;2023-11-21T05:47:11;8.20;29.80
1455;DHT22;721;48.168;12.818;2023-11-21T05:49:40;8.20;30.00
1455;DHT22;721;48.168;12.818;2023-11-21T05:52:07;8.20;30.00
1455;DHT22;721;48.168;12.818;2023-11-21T05:54:35;8.20;29.30
1455;DHT22;721;48.168;12.818;2023-11-21T05:57:02;8.00;29.90
1455;DHT22;721;48.168;12.818;2023-11-21T05:59:29;8.00;30.50
1455;DHT22;721;48.168;12.818;2023-11-21T06:01:56;8.00;29.90
1455;DHT22;721;48.168;12.818;2023-11-21T06:04:24;8.00;31.10
1455;DHT22;721;48.168;12.818;2023-11-21T06:06:52;8.10;30.80
1455;DHT22;721;48.168;12.818;2023-11-21T06:09:19;8.10;30.00
1455;DHT22;721;48.168;12.818;2023-11-21T06:11:46;8.10;30.00
1455;DHT22;721;48.168;12.818;2023-11-21T06:14:13;8.10;31.10
1455;DHT22;721;48.168;12.818;2023-11-21T06:16:40;8.10;30.70
1455;DHT22;721;48.168;12.818;2023-11-21T06:19:07;8.10;31.10
1455;DHT22;721;48.168;12.818;2023-11-21T06:21:33;8.10;31.30
1455;DHT22;721;48.168;12.818;2023-11-21T06:24:02;8.10;30.00
1455;DHT22;721;48.168;12.818;2023-11-21T06:26:29;8.10;29.30
1455;DHT22;721;48.168;12.818;2023-11-21T06:28:57;8.00;29.90
1455;DHT22;721;48.168;12.818;2023-11-21T06:31:24;8.10;31.10
1455;DHT22;721;48.168;12.818;2023-11-21T06:33:50;8.10;30.00
1455;DHT22;721;48.168;12.818;2023-11-21T06:36:18;8.10;30.00
1455;DHT22;721;48.168;12.818;2023-11-21T06:38:45;8.40;29.90
1455;DHT22;721;48.168;12.818;2023-11-21T06:41:13;8.10;30.00
1455;DHT22;721;48.168;12.818;2023-11-21T06:43:41;8.10;30.00
1455;DHT22;721;48.168;12.818;2023-11-21T06:46:12;8.20;29.20
1455;DHT22;721;48.168;12.818;2023-11-21T06:48:41;8.10;29.10
1455;DHT22;721;48.168;12.818;2023-11-21T06:51:08;8.20;29.30
1455;DHT22;721;48.168;12.818;2023-11-21T06:53:36;8.10;29.50
1455;DHT22;721;48.168;12.818;2023-11-21T06:56:03;8.20;30.00
1455;DHT22;721;48.168;12.818;2023-11-21T06:58:33;8.10;29.40
1455;DHT22;721;48.168;12.818;2023-11-21T07:01:00;8.10;30.40
1455;DHT22;721;48.168;12.818;2023-11-21T07:03:27;8.10;30.30
1455;DHT22;721;48.168;12.818;2023-11-21T07:05:54;8.20;30.00
1455;DHT22;721;48.168;12.818;2023-11-21T07:08:20;8.20;29.90
1455;DHT22;721;48.168;12.818;2023-11-21T07:10:48;8.10;30.00
1455;DHT22;721;48.168;12.818;2023-11-21T07:13:14;8.10;29.70
1455;DHT22;721;48.168;12.818;2023-11-21T07:15:43;7.80;32.00
1455;DHT22;721;48.168;12.818;2023-11-21T07:18:10;7.80;32.90
1455;DHT22;721;48.168;12.818;2023-11-21T07:20:37;7.80;34.00
1455;DHT22;721;48.168;12.818;2023-11-21T07:23:04;7.80;35.80
1455;DHT22;721;48.168;12.818;2023-11-21T07:25:31;7.80;35.50
1455;DHT22;721;48.168;12.818;2023-11-21T07:27:59;7.70;36.90
1455;DHT22;721;48.168;12.818;2023-11-21T07:30:26;7.80;36.70
1455;DHT22;721;48.168;12.818;2023-11-21T07:32:54;7.80;38.10
1455;DHT22;721;48.168;12.818;2023-11-21T07:35:21;7.80;38.40
1455;DHT22;721;48.168;12.818;2023-11-21T07:37:47;7.80;39.30
1455;DHT22;721;48.168;12.818;2023-11-21T07:40:14;7.90;37.80
1455;DHT22;721;48.168;12.818;2023-11-21T07:42:42;7.90;38.40
1455;DHT22;721;48.168;12.818;2023-11-21T07:45:09;7.80;37.40
1455;DHT22;721;48.168;12.818;2023-11-21T07:47:37;7.80;38.40
1455;DHT22;721;48.168;12.818;2023-11-21T07:50:07;7.80;38.40
1455;DHT22;721;48.168;12.818;2023-11-21T07:52:34;7.80;38.70
1455;DHT22;721;48.168;12.818;2023-11-21T07:55:01;7.80;38.60
1455;DHT22;721;48.168;12.818;2023-11-21T07:57:29;7.80;38.90
1455;DHT22;721;48.168;12.818;2023-11-21T07:59:55;7.80;38.70
1455;DHT22;721;48.168;12.818;2023-11-21T08:02:22;8.10;38.20
1455;DHT22;721;48.168;12.818;2023-11-21T08:04:49;7.80;37.20
1455;DHT22;721;48.168;12.818;2023-11-21T08:07:18;7.70;37.60
1455;DHT22;721;48.168;12.818;2023-11-21T08:09:45;7.70;37.70
1455;DHT22;721;48.168;12.818;2023-11-21T08:12:14;7.70;37.50
1455;DHT22;721;48.168;12.818;2023-11-21T08:14:41;7.60;37.20
1455;DHT22;721;48.168;12.818;2023-11-21T08:17:09;7.60;39.00
1455;DHT22;721;48.168;12.818;2023-11-21T08:19:36;7.60;38.80
1455;DHT22;721;48.168;12.818;2023-11-21T08:22:03;7.60;39.30
1455;DHT22;721;48.168;12.818;2023-11-21T08:24:34;7.60;39.30
1455;DHT22;721;48.168;12.818;2023-11-21T08:27:01;7.50;39.50
1455;DHT22;721;48.168;12.818;2023-11-21T08:29:29;7.60;40.50
1455;DHT22;721;48.168;12.818;2023-11-21T08:31:57;7.70;40.50
1455;DHT22;721;48.168;12.818;2023-11-21T08:34:25;7.80;40.40
1455;DHT22;721;48.168;12.818;2023-11-21T08:36:52;7.90;39.50
1455;DHT22;721;48.168;12.818;2023-11-21T08:39:19;7.90;39.50
1455;DHT22;721;48.168;12.818;2023-11-21T08:41:47;8.00;39.60
1455;DHT22;721;48.168;12.818;2023-11-21T08:44:13;8.00;39.00
1455;DHT22;721;48.168;12.818;2023-11-21T08:46:42;8.10;37.40
1455;DHT22;721;48.168;12.818;2023-11-21T08:49:10;8.20;35.30
1455;DHT22;721;48.168;12.818;2023-11-21T08:51:38;8.20;37.20
1455;DHT22;721;48.168;12.818;2023-11-21T08:54:05;8.30;35.40
1455;DHT22;721;48.168;12.818;2023-11-21T08:56:33;8.30;35.70
1455;DHT22;721;48.168;12.818;2023-11-21T08:59:01;8.30;35.00
1455;DHT22;721;48.168;12.818;2023-11-21T09:01:28;8.30;35.00
1455;DHT22;721;48.168;12.818;2023-11-21T09:03:56;8.30;35.70
1455;DHT22;721;48.168;12.818;2023-11-21T09:06:23;8.40;35.10
1455;DHT22;721;48.168;12.818;2023-11-21T09:08:50;8.30;34.40
1455;DHT22;721;48.168;12.818;2023-11-21T09:11:17;8.30;34.60
1455;DHT22;721;48.168;12.818;2023-11-21T09:13:44;8.20;33.90
1455;DHT22;721;48.168;12.818;2023-11-21T09:16:13;8.20;35.10
1455;DHT22;721;48.168;12.818;2023-11-21T09:18:41;8.30;35.00
1455;DHT22;721;48.168;12.818;2023-11-21T09:21:07;8.30;33.60
1455;DHT22;721;48.168;12.818;2023-11-21T09:23:35;8.30;35.00
1455;DHT22;721;48.168;12.818;2023-11-21T09:26:04;8.30;33.10
1455;DHT22;721;48.168;12.818;2023-11-21T09:28:31;8.40;32.10
1455;DHT22;721;48.168;12.818;2023-11-21T09:30:58;8.40;32.60
1455;DHT22;721;48.168;12.818;2023-11-21T09:33:26;8.50;32.50
1455;DHT22;721;48.168;12.818;2023-11-21T09:35:53;8.50;30.80
1455;DHT22;721;48.168;12.818;2023-11-21T09:38:19;8.80;30.50
1455;DHT22;721;48.168;12.818;2023-11-21T09:40:46;8.70;30.80
1455;DHT22;721;48.168;12.818;2023-11-21T09:43:16;8.70;29.20
1455;DHT22;721;48.168;12.818;2023-11-21T09:45:46;8.70;28.30
1455;DHT22;721;48.168;12.818;2023-11-21T09:48:14;8.70;29.40
1455;DHT22;721;48.168;12.818;2023-11-21T09:50:43;8.70;28.10
1455;DHT22;721;48.168;12.818;2023-11-21T09:53:16;8.80;27.40
1455;DHT22;721;48.168;12.818;2023-11-21T09:55:46;8.70;26.50
1455;DHT22;721;48.168;12.818;2023-11-21T09:58:14;8.60;26.50
1455;DHT22;721;48.168;12.818;2023-11-21T10:00:42;8.60;28.10
1455;DHT22;721;48.168;12.818;2023-11-21T10:03:09;8.50;26.90
1455;DHT22;721;48.168;12.818;2023-11-21T10:05:37;8.40;26.80
1455;DHT22;721;48.168;12.818;2023-11-21T10:08:08;8.40;26.70
1455;DHT22;721;48.168;12.818;2023-11-21T10:10:36;8.40;27.30
1455;DHT22;721;48.168;12.818;2023-11-21T10:13:05;8.40;27.10
1455;DHT22;721;48.168;12.818;2023-11-21T10:15:33;8.40;28.30
1455;DHT22;721;48.168;12.818;2023-11-21T10:18:03;8.50;28.90
1455;DHT22;721;48.168;12.818;2023-11-21T10:20:32;8.60;28.50
1455;DHT22;721;48.168;12.818;2023-11-21T10:22:59;8.60;26.90
1455;DHT22;721;48.168;12.818;2023-11-21T10:25:29;8.60;27.70
1455;DHT22;721;48.168;12.818;2023-11-21T10:27:58;8.80;26.60
1455;DHT22;721;48.168;12.818;2023-11-21T10:30:29;8.70;26.50
1455;DHT22;721;48.168;12.818;2023-11-21T10:33:01;8.80;25.30
1455;DHT22;721;48.168;12.818;2023-11-21T10:35:39;8.70;24.40
1455;DHT22;721;48.168;12.818;2023-11-21T10:38:06;8.70;25.30
1455;DHT22;721;48.168;12.818;2023-11-21T10:40:39;8.70;25.10
1455;DHT22;721;48.168;12.818;2023-11-21T10:43:07;8.70;26.50
1455;DHT22;721;48.168;12.818;2023-11-21T10:45:35;8.80;26.00
1455;DHT22;721;48.168;12.818;2023-11-21T10:48:05;8.90;25.40
1455;DHT22;721;48.168;12.818;2023-11-21T10:50:33;8.90;25.70
1455;DHT22;721;48.168;12.818;2023-11-21T10:53:01;8.90;24.70
1455;DHT22;721;48.168;12.818;2023-11-21T10:55:29;8.80;24.80
1455;DHT22;721;48.168;12.818;2023-11-21T10:57:58;8.80;25.30
1455;DHT22;721;48.168;12.818;2023-11-21T11:00:28;8.80;26.60
1455;DHT22;721;48.168;12.818;2023-11-21T11:02:55;8.90;25.10
1455;DHT22;721;48.168;12.818;2023-11-21T11:05:25;8.90;25.40
1455;DHT22;721;48.168;12.818;2023-11-21T11:07:58;8.90;25.50
1455;DHT22;721;48.168;12.818;2023-11-21T11:10:27;8.90;25.70
1455;DHT22;721;48.168;12.818;2023-11-21T11:12:55;8.90;26.60
1455;DHT22;721;48.168;12.818;2023-11-21T11:15:24;8.90;26.10
1455;DHT22;721;48.168;12.818;2023-11-21T11:17:52;8.90;26.70
1455;DHT22;721;48.168;12.818;2023-11-21T11:20:23;8.70;29.90
1455;DHT22;721;48.168;12.818;2023-11-21T11:23:04;8.50;33.70
1455;DHT22;721;48.168;12.818;2023-11-21T11:25:53;8.20;34.90
1455;DHT22;721;48.168;12.818;2023-11-21T11:28:38;8.10;38.60
1455;DHT22;721;48.168;12.818;2023-11-21T11:31:18;8.20;41.60
1455;DHT22;721;48.168;12.818;2023-11-21T11:33:55;8.00;43.30
1455;DHT22;721;48.168;12.818;2023-11-21T11:36:28;7.90;48.10
1455;DHT22;721;48.168;12.818;2023-11-21T11:38:56;7.90;49.50
1455;DHT22;721;48.168;12.818;2023-11-21T11:41:26;7.90;51.10
1455;DHT22;721;48.168;12.818;2023-11-21T11:43:53;8.00;51.70
1455;DHT22;721;48.168;12.818;2023-11-21T11:46:40;8.00;52.40
1455;DHT22;721;48.168;12.818;2023-11-21T11:49:08;8.10;54.20
1455;DHT22;721;48.168;12.818;2023-11-21T11:51:35;8.00;50.20
1455;DHT22;721;48.168;12.818;2023-11-21T11:54:02;8.10;50.10
1455;DHT22;721;48.168;12.818;2023-11-21T11:56:32;8.10;48.20
1455;DHT22;721;48.168;12.818;2023-11-21T11:59:02;8.10;48.90
1455;DHT22;721;48.168;12.818;2023-11-21T12:01:32;8.10;48.10
1455;DHT22;721;48.168;12.818;2023-11-21T12:04:25;8.10;49.20
1455;DHT22;721;48.168;12.818;2023-11-21T12:07:00;8.00;48.20
1455;DHT22;721;48.168;12.818;2023-11-21T12:09:30;8.10;47.40
1455;DHT22;721;48.168;12.818;2023-11-21T12:11:58;8.20;46.60
1455;DHT22;721;48.168;12.818;2023-11-21T12:14:25;8.20;46.70
1455;DHT22;721;48.168;12.818;2023-11-21T12:16:54;8.20;45.00
1455;DHT22;721;48.168;12.818;2023-11-21T12:19:21;8.20;46.30
1455;DHT22;721;48.168;12.818;2023-11-21T12:21:49;8.30;48.40
1455;DHT22;721;48.168;12.818;2023-11-21T12:24:16;8.30;49.40
1455;DHT22;721;48.168;12.818;2023-11-21T12:26:43;8.30;48.90
1455;DHT22;721;48.168;12.818;2023-11-21T12:29:10;8.50;48.70
1455;DHT22;721;48.168;12.818;2023-11-21T12:31:37;8.50;46.50
1455;DHT22;721;48.168;12.818;2023-11-21T12:34:06;8.50;45.90
1455;DHT22;721;48.168;12.818;2023-11-21T12:36:37;8.50;43.60
1455;DHT22;721;48.168;12.818;2023-11-21T12:39:04;8.50;43.80
1455;DHT22;721;48.168;12.818;2023-11-21T12:41:31;8.50;44.80
1455;DHT22;721;48.168;12.818;2023-11-21T12:43:58;8.50;45.80
1455;DHT22;721;48.168;12.818;2023-11-21T12:46:25;8.60;44.90
1455;DHT22;721;48.168;12.818;2023-11-21T12:48:55;8.70;46.60
1455;DHT22;721;48.168;12.818;2023-11-21T12:51:23;8.70;46.70
1455;DHT22;721;48.168;12.818;2023-11-21T12:53:50;8.70;45.70
1455;DHT22;721;48.168;12.818;2023-11-21T12:56:18;8.60;46.80
1455;DHT22;721;48.168;12.818;2023-11-21T12:58:48;8.70;46.90
1455;DHT22;721;48.168;12.818;2023-11-21T13:01:17;8.70;45.00
1455;DHT22;721;48.168;12.818;2023-11-21T13:03:47;8.60;43.00
1455;DHT22;721;48.168;12.818;2023-11-21T13:06:17;8.70;44.30
1455;DHT22;721;48.168;12.818;2023-11-21T13:08:46;8.70;44.10
1455;DHT22;721;48.168;12.818;2023-11-21T13:11:13;8.70;43.50
1455;DHT22;721;48.168;12.818;2023-11-21T13:13:41;8.60;43.70
1455;DHT22;721;48.168;12.818;2023-11-21T13:16:09;8.70;44.70
1455;DHT22;721;48.168;12.818;2023-11-21T13:18:36;8.80;44.10
1455;DHT22;721;48.168;12.818;2023-11-21T13:21:06;8.80;43.70
1455;DHT22;721;48.168;12.818;2023-11-21T13:23:37;8.80;45.10
1455;DHT22;721;48.168;12.818;2023-11-21T13:26:05;8.80;44.50
1455;DHT22;721;48.168;12.818;2023-11-21T13:28:34;8.70;45.50
1455;DHT22;721;48.168;12.818;2023-11-21T13:31:03;8.70;45.60
1455;DHT22;721;48.168;12.818;2023-11-21T13:33:35;8.70;45.00
1455;DHT22;721;48.168;12.818;2023-11-21T13:36:04;8.80;46.40
1455;DHT22;721;48.168;12.818;2023-11-21T13:38:33;8.60;46.60
1455;DHT22;721;48.168;12.818;2023-11-21T13:41:01;8.60;45.60
1455;DHT22;721;48.168;12.818;2023-11-21T13:43:34;8.70;46.50
1455;DHT22;721;48.168;12.818;2023-11-21T13:46:02;8.70;45.10
1455;DHT22;721;48.168;12.818;2023-11-21T13:48:38;8.70;44.00
1455;DHT22;721;48.168;12.818;2023-11-21T13:51:08;8.60;43.60
1455;DHT22;721;48.168;12.818;2023-11-21T13:53:42;8.60;44.90
1455;DHT22;721;48.168;12.818;2023-11-21T13:56:10;8.60;43.60
1455;DHT22;721;48.168;12.818;2023-11-21T13:58:39;8.60;43.10
1455;DHT22;721;48.168;12.818;2023-11-21T14:01:12;8.60;43.00
1455;DHT22;721;48.168;12.818;2023-11-21T14:04:01;8.60;42.80
1455;DHT22;721;48.168;12.818;2023-11-21T14:06:37;8.60;43.00
1455;DHT22;721;48.168;12.818;2023-11-21T14:09:13;8.60;43.00
1455;DHT22;721;48.168;12.818;2023-11-21T14:11:50;8.60;44.10
1455;DHT22;721;48.168;12.818;2023-11-21T14:14:21;8.60;44.00
1455;DHT22;721;48.168;12.818;2023-11-21T14:16:49;8.60;43.80
1455;DHT22;721;48.168;12.818;2023-11-21T14:19:16;8.70;43.50
1455;DHT22;721;48.168;12.818;2023-11-21T14:21:44;8.70;42.80
1455;DHT22;721;48.168;12.818;2023-11-21T14:24:11;8.50;42.00
1455;DHT22;721;48.168;12.818;2023-11-21T14:26:40;8.40;43.30
1455;DHT22;721;48.168;12.818;2023-11-21T14:29:07;8.60;44.40
1455;DHT22;721;48.168;12.818;2023-11-21T14:31:38;8.50;43.00
1455;DHT22;721;48.168;12.818;2023-11-21T14:34:04;8.50;44.30
1455;DHT22;721;48.168;12.818;2023-11-21T14:36:32;8.40;44.70
1455;DHT22;721;48.168;12.818;2023-11-21T14:38:59;8.40;45.70
1455;DHT22;721;48.168;12.818;2023-11-21T14:41:26;8.40;46.60
1455;DHT22;721;48.168;12.818;2023-11-21T14:43:54;8.40;47.30
1455;DHT22;721;48.168;12.818;2023-11-21T14:46:22;8.40;47.80
1455;DHT22;721;48.168;12.818;2023-11-21T14:48:51;8.50;47.30
1455;DHT22;721;48.168;12.818;2023-11-21T14:51:25;8.50;47.60
1455;DHT22;721;48.168;12.818;2023-11-21T14:53:56;8.50;46.90
1455;DHT22;721;48.168;12.818;2023-11-21T14:56:26;8.50;46.10
1455;DHT22;721;48.168;12.818;2023-11-21T14:58:57;8.60;46.60
1455;DHT22;721;48.168;12.818;2023-11-21T15:01:23;8.60;45.80
1455;DHT22;721;48.168;12.818;2023-11-21T15:04:10;8.60;45.90
1455;DHT22;721;48.168;12.818;2023-11-21T15:06:47;8.70;45.00
1455;DHT22;721;48.168;12.818;2023-11-21T15:09:14;8.50;45.90
1455;DHT22;721;48.168;12.818;2023-11-21T15:11:57;9.30;47.60
1455;DHT22;721;48.168;12.818;2023-11-21T15:14:32;8.70;46.60
1455;DHT22;721;48.168;12.818;2023-11-21T15:17:00;8.70;46.20
1455;DHT22;721;48.168;12.818;2023-11-21T15:19:30;8.50;47.50
1455;DHT22;721;48.168;12.818;2023-11-21T15:21:57;8.60;48.90
1455;DHT22;721;48.168;12.818;2023-11-21T15:24:24;8.70;47.80
1455;DHT22;721;48.168;12.818;2023-11-21T15:26:51;8.60;46.60
1455;DHT22;721;48.168;12.818;2023-11-21T15:29:19;8.60;47.00
1455;DHT22;721;48.168;12.818;2023-11-21T15:31:47;8.60;48.60
1455;DHT22;721;48.168;12.818;2023-11-21T15:34:14;8.50;48.70
1455;DHT22;721;48.168;12.818;2023-11-21T15:36:42;8.50;48.00
1455;DHT22;721;48.168;12.818;2023-11-21T15:39:09;8.60;48.20
1455;DHT22;721;48.168;12.818;2023-11-21T15:41:37;8.50;47.20
1455;DHT22;721;48.168;12.818;2023-11-21T15:44:05;8.40;48.40
1455;DHT22;721;48.168;12.818;2023-11-21T15:46:35;8.40;49.50
1455;DHT22;721;48.168;12.818;2023-11-21T15:49:03;8.50;50.30
1455;DHT22;721;48.168;12.818;2023-11-21T15:51:38;8.50;49.30
1455;DHT22;721;48.168;12.818;2023-11-21T15:54:07;8.50;50.30
1455;DHT22;721;48.168;12.818;2023-11-21T15:56:34;8.80;49.80
1455;DHT22;721;48.168;12.818;2023-11-21T15:59:02;8.50;49.70
1455;DHT22;721;48.168;12.818;2023-11-21T16:01:30;8.50;49.20
1455;DHT22;721;48.168;12.818;2023-11-21T16:03:56;8.50;49.50
1455;DHT22;721;48.168;12.818;2023-11-21T16:06:26;8.60;50.20
1455;DHT22;721;48.168;12.818;2023-11-21T16:08:54;8.70;48.30
1455;DHT22;721;48.168;12.818;2023-11-21T16:11:25;8.60;47.70
1455;DHT22;721;48.168;12.818;2023-11-21T16:13:52;8.70;48.40
1455;DHT22;721;48.168;12.818;2023-11-21T16:16:22;8.50;48.20
1455;DHT22;721;48.168;12.818;2023-11-21T16:18:49;8.60;48.50
1455;DHT22;721;48.168;12.818;2023-11-21T16:21:16;8.50;47.60
1455;DHT22;721;48.168;12.818;2023-11-21T16:23:43;8.50;48.40